Aeroporto :
LOGIN :

Iscrizione | Disclaimer

   EN    FR    IT 

 










Sommario :    VFR   VFR Marginale   IFR   IFR Intensivo   IFR Molto Intensivo
Visibilità : 
Base nubi : 
>= 8 km
>= 3000ft
5 / 8 km
1000 / 3000 ft
1500m / 5 km
500 / 1000 ft
800 / 1500m
200 / 500 ft
< 800m
< 200 ft
Simboli :   Temporali  Nebbia  Neve Forte  Precipitazioni Forti  Vento > 20 kt
SIGMETs :   Varie  Temporali  Ghiacco  Turbolenza  Onda orograficha  Ceneri Vulcaniche






- Altitudine del aeroporto : 2731 ft
- Codice IATA : LPY


LFHP - Le Puy Loudes

ULTIMO METAR :
  • 271100Z AUTO 31014KT 270V330 9999 FEW041 OVC048 11/04 Q1010

METARs OBSOLETI :
  • 271030Z AUTO 30013KT 9999 SCT028 SCT035 OVC045 10/04 Q1010
  • 271000Z AUTO 29010KT 250V330 //// // FEW021 SCT031 BKN043 10/05 Q1010
  • 270930Z AUTO 29010KT 250V330 9999 SCT023 BKN030 OVC037 10/04 Q1010
  • 270900Z AUTO 30011KT 260V330 9999 SCT022 BKN029 10/05 Q1010
  • 270830Z AUTO 29009KT 240V320 9999 SCT017 SCT023 BKN028 09/05 Q1010
  • 270800Z AUTO 29009KT 250V330 9999 BKN015 BKN021 BKN044 09/05 Q1010

Previsioni scadute.



MetMap, La meteo Aeronautica in un colpo d'occhio ! - Copyright ORBIFLY Dicembre 2007 - Disclaimer

ORBIFLY MET'MAP TEAM :

Programmazione e sviluppo : Alexandra Zaïnal
Concezione : Baudouin d'Aumeries
Supporto tecnico e logistico : Manuel Goepfert
Aiuto : Marc-Olivier Méhu
Aiuto per la traduzione : Arnaldo La Scala




FONTI E CREDITI :

   NOAA